Frankford, Minnesota
Current Conditions -  °F | °C
As of 9:54 AM on Thursday 18 Dec 2014 (Local Time) from KRST Reporting Station
Overcast Overcast  
Wind Chill: 10°   Ceiling: 1300
Heat Index: 18°   Visibility: 7mi
Dew Point: 14°   Wind: 6mph
Humidity: 84%   Direction: 140°SE
Pressure: 30.29"   Gusts: NA
Location:  43.7143°N, 92.5748°W
Report Text: KRST 181554Z 14005KT 7SM OVC013 M08/M10 A3029 RMK AO2 SLP282 T10781100
Loading
Personal Weather Stations






























Interactive Weather Map New forecast layout! Learn more

10-Day Weather Forecast

Advertisements
Track Severe Weather on mobile